Time;durP1;ratioP1;P1;durP2;ratioP2;P2;SDS_P1;SDS_P2;PMS_P1;PMS_P2;Temp;Humidity;BMP_temperature;BMP_pressure;BME280_temperature;BME280_humidity;BME280_pressure;Samples;Min_cycle;Max_cycle;Signal;HPM_P1;HPM_P2
2023/07/15 00:01:23;;;;;;;2.47;0.82;;;20.90;97.80;;;;;;5054186;28;20559;-72
2023/07/15 00:03:51;;;;;;;1.58;0.70;;;20.80;97.70;;;;;;5051342;28;20028;-72
2023/07/15 00:06:18;;;;;;;1.80;0.60;;;20.80;97.60;;;;;;5029696;28;20045;-72
2023/07/15 00:08:45;;;;;;;1.55;0.80;;;20.80;97.50;;;;;;5036297;28;20513;-72
2023/07/15 00:11:31;;;;;;;1.70;0.73;;;20.80;97.50;;;;;;5046422;28;20040;-72
2023/07/15 00:13:58;;;;;;;1.45;0.75;;;20.70;97.50;;;;;;5060601;28;20055;-72
2023/07/15 00:16:29;;;;;;;1.98;0.73;;;20.80;97.50;;;;;;5047249;28;20032;-72
2023/07/15 00:18:56;;;;;;;1.35;0.80;;;20.70;97.50;;;;;;5041402;28;21372;-72
2023/07/15 00:21:25;;;;;;;1.13;0.63;;;20.70;97.40;;;;;;5058172;28;20040;-72
2023/07/15 00:23:55;;;;;;;1.40;0.60;;;20.70;97.30;;;;;;5041123;28;20549;-72
2023/07/15 00:26:23;;;;;;;1.02;0.52;;;20.70;97.30;;;;;;5029824;28;20044;-72
2023/07/15 00:28:50;;;;;;;2.10;0.82;;;20.70;97.30;;;;;;5022552;28;20036;-72
2023/07/15 00:31:18;;;;;;;1.95;0.73;;;20.60;97.30;;;;;;5047179;28;20028;-72
2023/07/15 00:33:45;;;;;;;3.90;1.38;;;20.60;97.30;;;;;;5059782;28;20040;-72
2023/07/15 00:36:13;;;;;;;2.83;0.60;;;20.60;97.30;;;;;;5026886;28;20040;-72
2023/07/15 00:38:40;;;;;;;2.10;0.70;;;20.60;97.30;;;;;;5037017;28;20052;-72
2023/07/15 00:41:20;;;;;;;1.38;0.50;;;20.60;97.20;;;;;;5038010;28;20036;-72
2023/07/15 00:43:59;;;;;;;2.17;0.55;;;20.60;97.20;;;;;;5070087;28;20048;-72
2023/07/15 00:46:28;;;;;;;2.08;0.60;;;20.50;97.00;;;;;;5029354;28;20066;-72
2023/07/15 00:49:03;;;;;;;1.23;0.50;;;20.50;96.90;;;;;;5035983;28;21146;-72
2023/07/15 00:51:33;;;;;;;1.67;0.50;;;20.50;96.90;;;;;;5059716;28;20035;-72
2023/07/15 00:54:01;;;;;;;1.73;0.65;;;20.50;96.80;;;;;;5059528;28;20040;-72
2023/07/15 00:56:30;;;;;;;1.33;0.60;;;20.50;96.90;;;;;;5029186;28;20036;-72
2023/07/15 00:58:57;;;;;;;1.92;0.80;;;20.40;96.90;;;;;;5035795;28;20447;-72
2023/07/15 01:01:24;;;;;;;2.90;0.60;;;20.40;96.80;;;;;;5053035;28;21241;-72
2023/07/15 01:03:51;;;;;;;2.45;0.70;;;20.50;96.70;;;;;;5055690;28;20482;-72
2023/07/15 01:06:17;;;;;;;2.03;0.52;;;20.50;96.50;;;;;;5034234;28;20051;-72
2023/07/15 01:08:43;;;;;;;1.30;0.60;;;20.60;96.40;;;;;;5035602;28;20044;-72
2023/07/15 01:11:10;;;;;;;2.20;0.68;;;20.70;96.20;;;;;;5028033;28;20036;-72
2023/07/15 01:13:38;;;;;;;2.08;0.50;;;20.70;96.10;;;;;;5044775;28;20487;-72
2023/07/15 01:16:05;;;;;;;2.55;0.80;;;20.80;96.00;;;;;;5030217;28;20578;-72
2023/07/15 01:18:32;;;;;;;2.20;0.68;;;20.80;95.90;;;;;;5037834;28;20036;-71
2023/07/15 01:20:59;;;;;;;2.90;0.70;;;20.90;95.70;;;;;;5055283;28;20036;-72
2023/07/15 01:23:29;;;;;;;1.65;0.60;;;21.00;95.50;;;;;;5042972;28;20588;-72
2023/07/15 01:25:56;;;;;;;3.22;1.00;;;21.10;95.30;;;;;;5055616;28;20410;-73
2023/07/15 01:28:23;;;;;;;1.58;0.60;;;21.20;95.20;;;;;;5023937;28;20652;-72
2023/07/15 01:30:50;;;;;;;2.10;0.60;;;21.20;95.20;;;;;;5046271;28;20703;-72
2023/07/15 01:33:18;;;;;;;2.15;0.60;;;21.20;95.10;;;;;;5047551;28;20024;-72
2023/07/15 01:35:49;;;;;;;1.05;0.57;;;21.30;95.10;;;;;;5032811;28;20035;-72
2023/07/15 01:38:16;;;;;;;2.17;0.70;;;21.30;94.90;;;;;;5026517;28;20907;-72
2023/07/15 01:40:43;;;;;;;1.05;0.50;;;21.30;94.90;;;;;;5046140;28;20477;-72
2023/07/15 01:43:10;;;;;;;3.58;0.60;;;21.30;94.80;;;;;;5066707;28;20027;-73
2023/07/15 01:45:39;;;;;;;1.13;0.45;;;21.40;94.80;;;;;;5040550;28;20086;-72
2023/07/15 01:48:08;;;;;;;2.17;0.70;;;21.40;94.80;;;;;;5049378;28;20032;-72
2023/07/15 01:50:36;;;;;;;1.30;0.60;;;21.40;94.80;;;;;;5042101;28;20055;-72
2023/07/15 01:53:03;;;;;;;1.45;0.40;;;21.40;94.80;;;;;;5048303;28;20035;-72
2023/07/15 01:55:29;;;;;;;0.90;0.50;;;21.40;94.80;;;;;;5031022;28;20038;-72
2023/07/15 01:57:56;;;;;;;1.00;0.50;;;21.30;94.80;;;;;;5045687;28;20039;-72
2023/07/15 02:00:23;;;;;;;3.63;0.65;;;21.20;94.80;;;;;;5040981;28;20471;-72
2023/07/15 02:02:50;;;;;;;1.35;0.60;;;21.10;94.70;;;;;;5013969;28;20039;-72
2023/07/15 02:05:17;;;;;;;3.80;0.60;;;21.10;94.70;;;;;;5047341;28;20077;-73
2023/07/15 02:07:44;;;;;;;1.10;0.50;;;21.00;94.70;;;;;;5063130;28;20482;-72
2023/07/15 02:10:11;;;;;;;1.63;0.65;;;20.90;94.90;;;;;;5037161;28;20036;-72
2023/07/15 02:12:37;;;;;;;1.23;0.50;;;20.80;95.00;;;;;;5060821;28;20043;-72
2023/07/15 02:15:04;;;;;;;4.60;0.80;;;20.70;95.00;;;;;;5048488;28;20051;-72
2023/07/15 02:17:31;;;;;;;1.92;0.50;;;20.70;95.10;;;;;;5038414;28;20461;-72
2023/07/15 02:19:59;;;;;;;1.58;0.50;;;20.70;95.10;;;;;;5045411;28;20023;-72
2023/07/15 02:22:26;;;;;;;2.35;0.68;;;20.60;95.10;;;;;;5058933;28;20024;-72
2023/07/15 02:24:52;;;;;;;1.38;0.55;;;20.60;95.10;;;;;;5056272;28;20040;-72
2023/07/15 02:27:18;;;;;;;3.75;0.75;;;20.50;95.10;;;;;;5053002;28;20028;-72
2023/07/15 02:29:45;;;;;;;1.77;0.70;;;20.60;95.10;;;;;;5057355;28;20119;-72
2023/07/15 02:32:15;;;;;;;1.33;0.63;;;20.50;95.10;;;;;;5047140;28;20028;-72
2023/07/15 02:34:41;;;;;;;1.58;0.70;;;20.60;95.00;;;;;;5030944;28;20032;-72
2023/07/15 02:37:08;;;;;;;2.25;0.60;;;20.50;94.90;;;;;;5030093;28;20044;-72
2023/07/15 02:39:35;;;;;;;2.72;0.50;;;20.60;94.90;;;;;;5037271;28;20037;-73
2023/07/15 02:42:02;;;;;;;1.73;0.60;;;20.60;94.80;;;;;;5030858;28;20063;-72
2023/07/15 02:44:29;;;;;;;1.40;0.50;;;20.60;94.80;;;;;;5045997;28;20089;-73
2023/07/15 02:46:55;;;;;;;1.48;0.57;;;20.50;94.70;;;;;;5047898;28;20024;-73
2023/07/15 02:49:21;;;;;;;1.58;0.60;;;20.60;94.80;;;;;;5040332;28;20035;-72
2023/07/15 02:51:48;;;;;;;2.22;0.60;;;20.50;94.70;;;;;;5047143;28;20036;-72
2023/07/15 02:54:14;;;;;;;2.35;0.50;;;20.50;94.70;;;;;;5046491;28;20036;-72
2023/07/15 02:56:41;;;;;;;0.77;0.35;;;20.50;94.70;;;;;;5045984;28;20031;-72
2023/07/15 02:59:07;;;;;;;1.00;0.40;;;20.50;94.80;;;;;;5041021;28;20055;-73
2023/07/15 03:01:34;;;;;;;0.82;0.40;;;20.40;94.70;;;;;;5060376;28;20070;-73
2023/07/15 03:04:02;;;;;;;0.90;0.47;;;20.40;94.80;;;;;;5059100;28;20670;-72
2023/07/15 03:06:31;;;;;;;1.00;0.50;;;20.40;94.90;;;;;;5060424;28;20382;-72
2023/07/15 03:08:59;;;;;;;1.08;0.45;;;20.30;94.90;;;;;;5048342;28;20395;-73
2023/07/15 03:11:27;;;;;;;1.75;0.40;;;20.20;94.90;;;;;;5060948;28;20351;-72
2023/07/15 03:13:56;;;;;;;1.00;0.40;;;20.20;95.00;;;;;;5054073;28;20035;-72
2023/07/15 03:16:22;;;;;;;0.90;0.50;;;20.20;95.00;;;;;;5050075;28;20511;-73
2023/07/15 03:18:49;;;;;;;1.33;0.40;;;20.10;95.00;;;;;;5040707;28;20039;-72
2023/07/15 03:21:16;;;;;;;0.93;0.40;;;20.10;95.10;;;;;;5063460;28;20631;-72
2023/07/15 03:23:42;;;;;;;0.90;0.40;;;20.10;95.20;;;;;;5050149;28;20390;-72
2023/07/15 03:26:09;;;;;;;1.00;0.50;;;20.00;95.30;;;;;;5037840;28;20042;-72
2023/07/15 03:28:36;;;;;;;2.33;0.40;;;20.00;95.40;;;;;;5043317;28;20610;-72
2023/07/15 03:31:04;;;;;;;0.95;0.30;;;19.90;95.40;;;;;;5035208;28;20390;-72
2023/07/15 03:33:31;;;;;;;0.98;0.43;;;19.90;95.50;;;;;;5051954;28;20024;-72
2023/07/15 03:36:01;;;;;;;0.98;0.40;;;19.80;95.50;;;;;;5050053;28;21834;-72
2023/07/15 03:38:27;;;;;;;1.65;0.60;;;19.80;95.60;;;;;;5042085;28;21075;-72
2023/07/15 03:40:54;;;;;;;0.68;0.38;;;19.80;95.70;;;;;;5030296;28;20403;-72
2023/07/15 03:43:21;;;;;;;1.70;0.30;;;19.80;95.70;;;;;;5054606;28;20016;-72
2023/07/15 03:45:47;;;;;;;2.33;0.40;;;19.70;95.70;;;;;;5059128;28;20028;-72
2023/07/15 03:48:13;;;;;;;1.02;0.40;;;19.70;95.90;;;;;;5054010;28;20478;-72
2023/07/15 03:50:40;;;;;;;0.88;0.30;;;19.70;96.00;;;;;;5055734;28;20023;-72
2023/07/15 03:53:06;;;;;;;1.58;0.40;;;19.60;96.10;;;;;;5059351;28;20031;-72
2023/07/15 03:55:32;;;;;;;4.25;0.40;;;19.50;96.10;;;;;;5059363;28;20024;-72
2023/07/15 03:57:59;;;;;;;1.13;0.50;;;19.50;96.20;;;;;;5049735;28;20024;-72
2023/07/15 04:00:25;;;;;;;1.05;0.50;;;19.50;96.30;;;;;;5046486;28;20333;-72
2023/07/15 04:02:54;;;;;;;2.67;0.50;;;19.50;96.50;;;;;;5033533;28;20043;-72
2023/07/15 04:05:20;;;;;;;1.50;0.47;;;19.40;96.60;;;;;;5050395;28;20368;-72
2023/07/15 04:07:47;;;;;;;1.02;0.30;;;19.40;96.60;;;;;;5033263;28;20619;-72
2023/07/15 04:10:14;;;;;;;0.80;0.40;;;19.40;96.70;;;;;;5024273;28;22460;-72
2023/07/15 04:12:40;;;;;;;2.60;0.40;;;19.40;96.70;;;;;;5050441;28;20074;-72
2023/07/15 04:15:07;;;;;;;1.77;0.35;;;19.40;96.90;;;;;;5051161;28;20036;-72
2023/07/15 04:17:33;;;;;;;1.05;0.40;;;19.50;96.90;;;;;;5047464;28;20040;-72
2023/07/15 04:20:00;;;;;;;1.10;0.50;;;19.50;96.90;;;;;;5035468;28;20036;-72
2023/07/15 04:22:26;;;;;;;1.92;0.50;;;19.50;97.00;;;;;;5047041;28;20040;-72
2023/07/15 04:24:52;;;;;;;1.08;0.40;;;19.60;97.00;;;;;;5046010;28;20546;-72
2023/07/15 04:27:18;;;;;;;1.00;0.50;;;19.60;97.10;;;;;;5044542;28;20047;-72
2023/07/15 04:29:45;;;;;;;1.40;0.52;;;19.60;97.30;;;;;;5033791;28;20506;-72
2023/07/15 04:32:11;;;;;;;1.35;0.50;;;19.70;97.70;;;;;;5040380;28;20043;-72
2023/07/15 04:34:37;;;;;;;1.05;0.50;;;19.70;97.50;;;;;;5072277;28;20047;-72
2023/07/15 04:37:04;;;;;;;1.67;0.50;;;19.80;97.60;;;;;;5034969;28;20036;-72
2023/07/15 04:39:30;;;;;;;0.93;0.40;;;19.90;97.60;;;;;;5016315;28;20056;-72
2023/07/15 04:41:57;;;;;;;1.10;0.45;;;19.90;97.60;;;;;;5046495;28;20883;-72
2023/07/15 04:44:23;;;;;;;0.85;0.55;;;20.00;97.70;;;;;;5060222;28;20059;-72
2023/07/15 04:46:49;;;;;;;1.67;0.63;;;20.00;97.80;;;;;;5061146;28;20046;-72
2023/07/15 04:49:17;;;;;;;1.17;0.50;;;20.20;98.00;;;;;;5034149;28;20040;-72
2023/07/15 04:51:44;;;;;;;1.42;0.55;;;20.20;98.00;;;;;;5050895;28;20051;-72
2023/07/15 04:54:10;;;;;;;0.95;0.50;;;20.30;98.10;;;;;;5025243;28;20032;-72
2023/07/15 04:56:36;;;;;;;1.45;0.50;;;20.30;98.10;;;;;;5055065;28;20032;-72
2023/07/15 04:59:03;;;;;;;0.88;0.47;;;20.50;98.20;;;;;;5019474;28;20046;-71
2023/07/15 05:01:29;;;;;;;2.45;0.50;;;20.60;98.20;;;;;;5045827;28;20040;-72
2023/07/15 05:03:55;;;;;;;1.25;0.60;;;20.70;98.10;;;;;;5044334;28;20041;-73
2023/07/15 05:06:22;;;;;;;1.92;0.80;;;20.80;98.00;;;;;;5028896;28;20036;-73
2023/07/15 05:08:48;;;;;;;1.60;0.55;;;20.90;98.00;;;;;;5032309;28;20063;-73
2023/07/15 05:11:16;;;;;;;1.35;0.50;;;21.10;97.90;;;;;;5028704;28;20040;-73
2023/07/15 05:13:42;;;;;;;1.02;0.50;;;21.10;97.90;;;;;;5038604;28;20036;-73
2023/07/15 05:16:09;;;;;;;1.50;0.52;;;21.20;97.90;;;;;;5038868;28;20045;-73
2023/07/15 05:18:36;;;;;;;1.70;0.60;;;21.30;97.90;;;;;;5040774;28;20044;-73
2023/07/15 05:21:02;;;;;;;2.55;0.70;;;21.50;97.80;;;;;;5042936;28;21034;-73
2023/07/15 05:23:31;;;;;;;1.30;0.70;;;21.50;97.70;;;;;;5044610;28;20035;-73
2023/07/15 05:26:01;;;;;;;1.33;0.60;;;21.70;97.80;;;;;;5027483;28;20032;-73
2023/07/15 05:28:30;;;;;;;2.15;0.63;;;21.80;97.80;;;;;;5021389;28;20053;-73
2023/07/15 05:31:00;;;;;;;1.20;0.60;;;21.90;97.60;;;;;;5045043;28;20040;-73
2023/07/15 05:33:26;;;;;;;2.42;0.60;;;22.00;97.50;;;;;;5052977;28;20035;-71
2023/07/15 05:35:54;;;;;;;1.75;0.70;;;22.10;97.40;;;;;;5053783;28;20032;-72
2023/07/15 05:38:24;;;;;;;2.95;0.65;;;22.30;97.40;;;;;;5047001;28;20043;-71
2023/07/15 05:40:55;;;;;;;2.72;0.60;;;22.40;97.30;;;;;;5043682;28;20047;-71
2023/07/15 05:43:21;;;;;;;2.13;0.63;;;22.60;97.20;;;;;;5029612;28;20052;-72
2023/07/15 05:45:48;;;;;;;1.38;0.60;;;22.70;97.20;;;;;;5045628;28;20028;-72
2023/07/15 05:48:14;;;;;;;1.58;0.73;;;22.80;97.10;;;;;;5041469;28;20046;-72
2023/07/15 05:50:41;;;;;;;1.70;0.70;;;22.90;97.00;;;;;;5040513;28;20039;-72
2023/07/15 05:53:08;;;;;;;2.35;0.60;;;23.00;96.90;;;;;;5046883;28;20028;-72
2023/07/15 05:55:35;;;;;;;1.60;0.70;;;23.20;96.90;;;;;;5054882;28;20050;-72
2023/07/15 05:58:01;;;;;;;2.58;0.90;;;23.30;96.80;;;;;;5036444;28;20036;-73
2023/07/15 06:00:28;;;;;;;1.38;0.60;;;23.40;96.70;;;;;;5025085;28;20036;-72
2023/07/15 06:02:55;;;;;;;1.63;0.70;;;23.60;96.50;;;;;;5044835;28;20592;-72
2023/07/15 06:05:21;;;;;;;1.02;0.55;;;23.60;96.40;;;;;;5044819;28;20036;-72
2023/07/15 06:07:48;;;;;;;2.13;1.00;;;23.70;96.30;;;;;;5044619;28;20036;-73
2023/07/15 06:10:15;;;;;;;2.20;0.70;;;23.80;96.30;;;;;;5031600;28;20517;-73
2023/07/15 06:12:42;;;;;;;2.65;0.70;;;23.90;96.20;;;;;;5047578;28;20032;-73
2023/07/15 06:15:09;;;;;;;2.38;0.57;;;24.10;96.10;;;;;;5054793;28;20036;-74
2023/07/15 06:17:35;;;;;;;2.38;0.73;;;24.30;96.10;;;;;;5056261;28;20494;-74
2023/07/15 06:20:02;;;;;;;2.75;0.85;;;24.50;95.90;;;;;;5041274;28;20036;-73
2023/07/15 06:22:28;;;;;;;1.70;0.80;;;24.70;95.70;;;;;;5046511;28;20024;-74
2023/07/15 06:24:55;;;;;;;2.28;0.70;;;24.90;95.50;;;;;;5049929;28;20048;-73
2023/07/15 06:27:22;;;;;;;2.65;0.65;;;25.10;95.20;;;;;;5031555;28;20403;-73
2023/07/15 06:29:49;;;;;;;2.45;1.38;;;25.20;95.10;;;;;;5035498;28;20487;-73
2023/07/15 06:32:15;;;;;;;1.90;0.75;;;25.30;94.70;;;;;;5046190;28;20044;-73
2023/07/15 06:34:41;;;;;;;1.95;0.70;;;25.30;94.50;;;;;;5073723;28;20035;-73
2023/07/15 06:37:08;;;;;;;2.05;0.70;;;25.40;94.20;;;;;;5059889;28;20036;-73
2023/07/15 06:39:34;;;;;;;4.07;0.70;;;25.40;94.20;;;;;;5048326;28;20043;-73
2023/07/15 06:42:00;;;;;;;1.90;0.75;;;25.50;94.10;;;;;;5050589;28;20044;-73
2023/07/15 06:44:27;;;;;;;1.42;0.70;;;25.60;94.00;;;;;;5066185;28;20063;-73
2023/07/15 06:46:54;;;;;;;1.75;0.80;;;25.80;93.90;;;;;;5033025;28;20040;-73
2023/07/15 06:49:20;;;;;;;2.08;0.70;;;26.00;93.70;;;;;;5026057;28;20487;-73
2023/07/15 06:51:46;;;;;;;4.32;0.80;;;26.30;93.40;;;;;;5050201;28;20036;-74
2023/07/15 06:54:13;;;;;;;1.73;0.60;;;26.40;93.30;;;;;;5036633;28;20044;-74
2023/07/15 06:56:39;;;;;;;3.80;1.20;;;26.50;93.10;;;;;;5058518;28;20032;-74
2023/07/15 06:59:05;;;;;;;1.75;0.80;;;26.50;93.10;;;;;;5046748;28;20040;-74
2023/07/15 07:01:32;;;;;;;1.90;0.85;;;26.50;93.20;;;;;;5049934;28;20032;-74
2023/07/15 07:03:58;;;;;;;2.63;0.75;;;26.60;93.30;;;;;;5049490;28;20475;-74
2023/07/15 07:06:25;;;;;;;1.90;0.70;;;26.60;93.40;;;;;;5050510;28;20051;-73
2023/07/15 07:08:53;;;;;;;2.70;0.60;;;26.70;93.70;;;;;;5040877;28;20118;-73
2023/07/15 07:11:20;;;;;;;2.15;0.52;;;26.70;93.80;;;;;;5063259;27;20395;-73
2023/07/15 07:13:47;;;;;;;2.40;0.70;;;26.80;93.90;;;;;;5047081;28;20032;-73
2023/07/15 07:16:13;;;;;;;2.80;0.68;;;26.90;94.30;;;;;;5058723;28;20095;-73
2023/07/15 07:18:39;;;;;;;2.10;0.50;;;27.00;94.20;;;;;;5045808;28;20032;-73
2023/07/15 07:21:06;;;;;;;1.38;0.52;;;27.00;94.20;;;;;;5049155;28;20040;-73
2023/07/15 07:23:32;;;;;;;1.02;0.50;;;27.00;94.30;;;;;;5062507;28;20032;-73
2023/07/15 07:25:59;;;;;;;1.98;0.50;;;27.00;94.50;;;;;;5032320;28;20043;-73
2023/07/15 07:28:40;;;;;;;3.03;0.70;;;27.10;94.50;;;;;;5040020;28;21152;-73
2023/07/15 07:31:08;;;;;;;1.53;0.60;;;27.20;94.40;;;;;;5029418;28;20043;-73
2023/07/15 07:33:34;;;;;;;1.13;0.55;;;27.30;94.40;;;;;;5051412;28;20050;-73
2023/07/15 07:36:02;;;;;;;1.13;0.52;;;27.40;94.50;;;;;;5044087;28;20505;-73
2023/07/15 07:38:28;;;;;;;2.13;0.50;;;27.40;94.40;;;;;;5046488;28;20047;-73
2023/07/15 07:40:54;;;;;;;1.20;0.50;;;27.50;94.40;;;;;;5047245;28;20040;-73
2023/07/15 07:43:21;;;;;;;1.50;0.50;;;27.60;94.30;;;;;;5047959;28;20044;-73
2023/07/15 07:45:47;;;;;;;2.65;0.60;;;27.70;94.40;;;;;;5046354;28;20051;-73
2023/07/15 07:48:13;;;;;;;2.00;0.50;;;27.90;94.40;;;;;;5041043;28;20039;-73
2023/07/15 07:50:40;;;;;;;2.33;0.57;;;28.10;94.30;;;;;;5041795;28;20059;-73
2023/07/15 07:53:07;;;;;;;1.23;0.57;;;28.20;93.90;;;;;;5050196;28;20044;-73
2023/07/15 07:55:33;;;;;;;3.05;0.88;;;28.10;93.50;;;;;;5042536;28;20470;-73
2023/07/15 07:57:59;;;;;;;1.27;0.52;;;28.20;93.40;;;;;;5056517;28;20043;-73
2023/07/15 08:00:26;;;;;;;1.50;0.60;;;28.30;93.40;;;;;;5044340;28;20039;-73
2023/07/15 08:02:52;;;;;;;1.42;0.57;;;28.50;93.00;;;;;;5047962;28;21124;-73
2023/07/15 08:05:18;;;;;;;1.25;0.60;;;28.70;92.90;;;;;;5030586;28;20403;-73
2023/07/15 08:07:45;;;;;;;1.75;0.65;;;28.90;92.40;;;;;;5029953;28;20577;-73
2023/07/15 08:10:11;;;;;;;3.20;0.57;;;29.10;92.30;;;;;;5049511;28;20110;-73
2023/07/15 08:12:37;;;;;;;1.63;0.50;;;29.20;91.90;;;;;;5029853;28;20072;-73
2023/07/15 08:15:04;;;;;;;1.80;0.60;;;29.10;91.70;;;;;;5070515;28;20039;-73
2023/07/15 08:17:30;;;;;;;1.20;0.50;;;29.10;91.50;;;;;;5057354;28;20034;-73
2023/07/15 08:19:57;;;;;;;1.38;0.50;;;29.10;91.70;;;;;;5060764;28;20511;-73
2023/07/15 08:22:23;;;;;;;1.75;0.57;;;29.30;91.70;;;;;;5030498;28;20028;-73
2023/07/15 08:24:49;;;;;;;3.03;0.50;;;29.50;91.40;;;;;;5029744;28;20039;-73
2023/07/15 08:27:16;;;;;;;1.00;0.40;;;29.50;90.80;;;;;;5045820;28;20043;-73
2023/07/15 08:29:42;;;;;;;2.42;0.60;;;29.30;90.80;;;;;;5032430;28;20048;-73
2023/07/15 08:32:08;;;;;;;0.82;0.40;;;29.10;90.80;;;;;;5029812;28;20035;-73
2023/07/15 08:34:35;;;;;;;0.70;0.40;;;28.90;91.00;;;;;;5046688;28;20035;-73
2023/07/15 08:37:01;;;;;;;1.50;0.60;;;28.80;91.20;;;;;;5054409;28;21286;-73
2023/07/15 08:39:27;;;;;;;2.67;0.65;;;28.70;91.40;;;;;;5026644;28;20032;-73
2023/07/15 08:41:55;;;;;;;1.60;0.50;;;28.60;91.40;;;;;;5053912;28;20044;-73
2023/07/15 08:44:22;;;;;;;1.88;0.55;;;28.60;91.50;;;;;;5045284;28;20055;-73
2023/07/15 08:46:51;;;;;;;1.65;0.60;;;28.50;91.60;;;;;;5046369;28;20032;-73
2023/07/15 08:49:20;;;;;;;2.63;0.40;;;28.60;91.70;;;;;;5037054;28;20178;-73
2023/07/15 08:51:46;;;;;;;1.70;0.47;;;28.80;91.90;;;;;;5060580;28;20040;-72
2023/07/15 08:54:13;;;;;;;3.78;0.60;;;29.10;91.80;;;;;;5045804;28;20046;-73
2023/07/15 08:56:40;;;;;;;3.80;0.50;;;29.20;91.50;;;;;;5050589;28;20036;-73
2023/07/15 08:59:06;;;;;;;1.13;0.40;;;29.10;91.40;;;;;;5042572;28;20498;-73
2023/07/15 09:01:35;;;;;;;3.20;0.57;;;29.30;91.40;;;;;;5054251;28;20036;-73
2023/07/15 09:04:01;;;;;;;1.00;0.40;;;29.50;91.20;;;;;;5045228;28;20039;-73
2023/07/15 09:06:28;;;;;;;1.27;0.40;;;29.70;91.20;;;;;;5058774;28;20039;-73
2023/07/15 09:08:55;;;;;;;1.08;0.40;;;29.80;91.00;;;;;;5035783;28;20035;-73
2023/07/15 09:11:21;;;;;;;1.92;0.50;;;29.70;90.90;;;;;;5014408;28;20047;-73
2023/07/15 09:13:48;;;;;;;2.92;0.40;;;29.50;90.80;;;;;;5050523;28;20036;-73
2023/07/15 09:16:15;;;;;;;1.70;1.05;;;29.30;90.70;;;;;;5047542;28;20611;-73
2023/07/15 09:18:43;;;;;;;1.88;0.95;;;29.20;90.80;;;;;;5048042;28;20036;-73
2023/07/15 09:21:14;;;;;;;1.65;0.80;;;29.20;90.80;;;;;;5055177;28;20036;-72
2023/07/15 09:23:43;;;;;;;1.08;0.40;;;29.20;91.00;;;;;;5048962;28;20386;-73
2023/07/15 09:26:10;;;;;;;1.65;0.43;;;29.20;90.70;;;;;;5031684;28;20036;-73
2023/07/15 09:28:38;;;;;;;0.80;0.40;;;29.10;90.60;;;;;;5041067;28;20036;-72
2023/07/15 09:31:04;;;;;;;1.35;0.30;;;29.00;90.60;;;;;;5047374;28;20542;-73
2023/07/15 09:33:40;;;;;;;1.27;0.40;;;29.00;90.60;;;;;;5032505;28;20040;-73
2023/07/15 09:36:06;;;;;;;1.42;0.38;;;29.00;90.60;;;;;;5028230;28;20032;-73
2023/07/15 09:38:35;;;;;;;1.00;0.40;;;28.90;90.60;;;;;;5027462;28;20036;-73
2023/07/15 09:41:04;;;;;;;0.93;0.40;;;28.70;90.70;;;;;;5039182;28;20039;-73
2023/07/15 09:43:48;;;;;;;1.35;0.40;;;28.50;90.90;;;;;;5051072;28;20032;-74
2023/07/15 09:46:17;;;;;;;0.80;0.30;;;28.20;91.20;;;;;;5031016;28;20035;-73
2023/07/15 09:48:50;;;;;;;1.85;0.30;;;27.90;91.40;;;;;;5034822;28;20040;-73
2023/07/15 09:51:17;;;;;;;2.10;0.50;;;27.70;91.60;;;;;;5026773;28;20047;-73
2023/07/15 09:53:53;;;;;;;0.85;0.57;;;27.50;92.00;;;;;;5043629;28;20044;-73
2023/07/15 09:56:36;;;;;;;2.47;0.50;;;27.50;92.10;;;;;;5044897;28;20039;-73
2023/07/15 09:59:04;;;;;;;;;;;27.50;92.20;;;;;;5047936;28;20415;-80
2023/07/15 10:01:47;;;;;;;2.10;0.50;;;27.50;92.20;;;;;;5054718;28;19924;-73
2023/07/15 10:04:44;;;;;;;1.95;0.70;;;27.70;92.30;;;;;;5034374;28;20059;-73
2023/07/15 10:07:11;;;;;;;2.08;0.70;;;28.10;92.20;;;;;;5043661;28;20048;-75
2023/07/15 10:09:38;;;;;;;3.50;0.80;;;28.30;91.90;;;;;;5042875;28;20032;-74
2023/07/15 10:12:06;;;;;;;1.73;0.60;;;28.50;91.90;;;;;;5066966;28;20039;-73
2023/07/15 10:14:33;;;;;;;1.13;0.40;;;28.70;91.70;;;;;;5020140;28;20043;-74
2023/07/15 10:17:14;;;;;;;1.15;0.60;;;28.70;91.40;;;;;;5050756;28;20028;-75
2023/07/15 10:19:43;;;;;;;1.90;0.50;;;28.50;91.40;;;;;;5046621;28;20051;-74
2023/07/15 10:22:11;;;;;;;1.73;0.40;;;28.30;91.60;;;;;;5059135;28;20617;-73
2023/07/15 10:24:51;;;;;;;1.52;0.50;;;28.10;91.60;;;;;;5037731;28;20032;-75
2023/07/15 10:27:17;;;;;;;1.63;0.57;;;27.80;91.70;;;;;;5049038;28;20486;-78
2023/07/15 10:29:44;;;;;;;1.95;0.60;;;27.70;91.90;;;;;;5041887;28;20038;-74
2023/07/15 10:32:15;;;;;;;2.92;0.60;;;27.60;92.00;;;;;;5054311;28;20047;-72
2023/07/15 10:34:51;;;;;;;1.50;0.57;;;27.50;91.80;;;;;;5047734;28;20047;-72
2023/07/15 10:37:19;;;;;;;3.00;0.50;;;27.40;91.60;;;;;;5052909;28;20032;-74
2023/07/15 10:39:47;;;;;;;1.98;0.50;;;27.30;91.60;;;;;;5036235;28;20036;-73
2023/07/15 10:42:15;;;;;;;3.42;0.60;;;27.20;91.70;;;;;;5073194;28;20047;-74
2023/07/15 10:44:44;;;;;;;2.00;0.52;;;27.20;91.90;;;;;;5058009;28;21095;-74
2023/07/15 10:47:14;;;;;;;3.72;0.80;;;27.10;92.00;;;;;;5048148;28;20031;-75
2023/07/15 10:49:44;;;;;;;2.30;0.60;;;27.00;92.10;;;;;;5018947;28;20059;-73
2023/07/15 10:52:11;;;;;;;1.52;0.70;;;27.00;92.30;;;;;;5049223;28;20059;-74
2023/07/15 10:54:39;;;;;;;2.88;1.63;;;27.00;92.50;;;;;;5052308;28;22274;-74
2023/07/15 10:57:10;;;;;;;1.40;0.65;;;27.00;92.90;;;;;;5048949;28;20028;-74
2023/07/15 10:59:39;;;;;;;1.85;0.55;;;26.90;93.30;;;;;;5044801;28;21411;-73
2023/07/15 11:02:06;;;;;;;2.58;0.60;;;26.70;93.60;;;;;;5059571;28;20036;-74
2023/07/15 11:04:34;;;;;;;2.58;0.60;;;26.70;93.80;;;;;;5073849;28;20690;-74
2023/07/15 11:07:03;;;;;;;1.45;0.50;;;26.70;94.20;;;;;;5048256;28;20036;-74
2023/07/15 11:09:29;;;;;;;1.45;0.60;;;26.70;94.80;;;;;;5043904;28;20036;-81
2023/07/15 11:11:56;;;;;;;2.22;0.60;;;26.70;95.00;;;;;;5035384;28;20383;-74
2023/07/15 11:14:24;;;;;;;1.40;0.57;;;26.60;95.00;;;;;;5050729;28;20411;-74
2023/07/15 11:16:52;;;;;;;1.70;0.80;;;26.70;95.10;;;;;;5051881;28;20051;-74
2023/07/15 11:19:19;;;;;;;3.35;2.10;;;26.90;95.10;;;;;;5028395;28;20036;-74
2023/07/15 11:21:45;;;;;;;2.22;1.73;;;27.20;94.90;;;;;;5060317;28;20379;-74
2023/07/15 11:24:13;;;;;;;1.92;1.00;;;27.20;94.40;;;;;;5059197;28;20040;-73
2023/07/15 11:26:43;;;;;;;2.65;0.68;;;27.10;93.90;;;;;;5050838;28;20040;-73
2023/07/15 11:29:28;;;;;;;2.30;0.73;;;27.00;93.40;;;;;;5037353;28;20046;-73
2023/07/15 11:31:56;;;;;;;1.20;0.60;;;27.20;93.20;;;;;;5048198;28;20043;-73
2023/07/15 11:34:26;;;;;;;2.00;0.55;;;27.40;93.00;;;;;;5047463;28;20048;-73
2023/07/15 11:36:54;;;;;;;1.52;0.50;;;27.60;92.60;;;;;;5031184;28;20048;-73
2023/07/15 11:39:20;;;;;;;1.67;0.50;;;27.70;92.50;;;;;;5027020;28;20044;-73
2023/07/15 11:41:49;;;;;;;1.38;0.47;;;27.60;92.10;;;;;;5059843;28;20032;-73
2023/07/15 11:44:20;;;;;;;3.05;0.88;;;27.40;91.80;;;;;;5058827;28;20048;-73
2023/07/15 11:46:46;;;;;;;1.27;0.60;;;27.30;92.00;;;;;;5069205;28;21845;-73
2023/07/15 11:49:19;;;;;;;1.30;0.60;;;27.40;92.60;;;;;;5039866;28;20032;-73
2023/07/15 11:51:46;;;;;;;3.15;0.63;;;27.60;92.80;;;;;;5047679;28;20040;-73
2023/07/15 11:54:15;;;;;;;1.80;0.60;;;27.70;92.70;;;;;;5033545;28;20430;-73
2023/07/15 11:56:43;;;;;;;1.80;0.82;;;27.80;92.60;;;;;;5048661;28;20032;-73
2023/07/15 11:59:13;;;;;;;2.53;0.70;;;27.70;92.30;;;;;;5036313;28;20047;-73
2023/07/15 12:01:41;;;;;;;1.67;0.73;;;27.60;92.10;;;;;;5071825;28;20410;-73
2023/07/15 12:04:19;;;;;;;1.35;0.50;;;27.50;92.10;;;;;;5057298;28;21100;-73
2023/07/15 12:06:50;;;;;;;1.45;0.50;;;27.90;92.00;;;;;;5056146;28;20382;-73
2023/07/15 12:09:17;;;;;;;1.73;0.60;;;28.30;91.60;;;;;;5037643;28;22925;-73
2023/07/15 12:11:45;;;;;;;3.08;1.15;;;28.90;90.90;;;;;;5046323;28;20516;-73
2023/07/15 12:14:13;;;;;;;2.13;0.70;;;29.20;89.80;;;;;;5047412;28;20502;-73
2023/07/15 12:16:40;;;;;;;1.55;1.13;;;29.20;88.80;;;;;;5062869;27;20537;-73
2023/07/15 12:19:13;;;;;;;2.85;0.60;;;29.00;88.10;;;;;;5036703;28;20468;-73
2023/07/15 12:21:40;;;;;;;2.42;0.60;;;28.80;88.80;;;;;;5050663;28;20411;-73
2023/07/15 12:24:06;;;;;;;2.05;0.93;;;28.80;88.30;;;;;;5058147;28;20024;-73
2023/07/15 12:26:33;;;;;;;0.90;0.50;;;28.90;87.80;;;;;;5038207;28;20032;-74
2023/07/15 12:28:59;;;;;;;0.80;0.50;;;29.00;87.10;;;;;;5042196;28;20028;-74
2023/07/15 12:31:26;;;;;;;1.77;0.60;;;29.00;86.70;;;;;;5048525;28;20039;-73
2023/07/15 12:33:52;;;;;;;1.48;0.60;;;28.90;86.30;;;;;;5060245;28;20044;-73
2023/07/15 12:36:18;;;;;;;0.88;0.47;;;29.40;87.10;;;;;;5046107;28;20044;-74
2023/07/15 12:38:45;;;;;;;0.95;0.47;;;30.40;86.70;;;;;;5039867;28;20029;-74
2023/07/15 12:41:12;;;;;;;1.50;0.50;;;30.80;83.70;;;;;;5026318;28;20048;-74
2023/07/15 12:43:39;;;;;;;1.25;0.50;;;30.80;83.20;;;;;;5052208;28;20060;-74
2023/07/15 12:46:06;;;;;;;0.90;0.50;;;30.70;83.00;;;;;;5054102;28;20036;-74
2023/07/15 12:48:33;;;;;;;1.58;0.50;;;30.80;82.80;;;;;;5066253;28;20047;-75
2023/07/15 12:50:59;;;;;;;3.28;0.85;;;30.90;83.40;;;;;;5046761;28;20038;-75